sensor_id;sensor_type;location;lat;lon;timestamp;P1;durP1;ratioP1;P2;durP2;ratioP2
7575;SDS011;3829;50.798;4.358;2024-01-10T00:01:27;9.53;;;5.03;;
7575;SDS011;3829;50.798;4.358;2024-01-10T00:03:53;7.37;;;4.10;;
7575;SDS011;3829;50.798;4.358;2024-01-10T00:06:19;8.20;;;4.53;;
7575;SDS011;3829;50.798;4.358;2024-01-10T00:08:45;10.03;;;4.70;;
7575;SDS011;3829;50.798;4.358;2024-01-10T00:11:11;10.17;;;4.20;;
7575;SDS011;3829;50.798;4.358;2024-01-10T00:13:37;11.53;;;4.57;;
7575;SDS011;3829;50.798;4.358;2024-01-10T00:16:03;13.67;;;4.70;;
7575;SDS011;3829;50.798;4.358;2024-01-10T00:18:29;8.77;;;5.13;;
7575;SDS011;3829;50.798;4.358;2024-01-10T00:20:55;10.37;;;4.83;;
7575;SDS011;3829;50.798;4.358;2024-01-10T00:23:21;9.40;;;4.27;;
7575;SDS011;3829;50.798;4.358;2024-01-10T00:25:47;6.83;;;4.03;;
7575;SDS011;3829;50.798;4.358;2024-01-10T00:28:13;11.67;;;4.40;;
7575;SDS011;3829;50.798;4.358;2024-01-10T00:30:41;7.60;;;4.40;;
7575;SDS011;3829;50.798;4.358;2024-01-10T00:33:07;6.97;;;4.23;;
7575;SDS011;3829;50.798;4.358;2024-01-10T00:35:32;10.67;;;5.10;;
7575;SDS011;3829;50.798;4.358;2024-01-10T00:37:58;13.00;;;5.30;;
7575;SDS011;3829;50.798;4.358;2024-01-10T00:40:23;7.80;;;4.43;;
7575;SDS011;3829;50.798;4.358;2024-01-10T00:42:49;8.03;;;4.20;;
7575;SDS011;3829;50.798;4.358;2024-01-10T00:45:15;8.80;;;4.80;;
7575;SDS011;3829;50.798;4.358;2024-01-10T00:47:41;10.77;;;4.73;;
7575;SDS011;3829;50.798;4.358;2024-01-10T00:50:06;10.30;;;4.30;;
7575;SDS011;3829;50.798;4.358;2024-01-10T00:52:32;13.53;;;4.60;;
7575;SDS011;3829;50.798;4.358;2024-01-10T00:54:58;10.57;;;3.67;;
7575;SDS011;3829;50.798;4.358;2024-01-10T00:57:23;12.47;;;4.73;;
7575;SDS011;3829;50.798;4.358;2024-01-10T00:59:49;6.50;;;3.23;;
7575;SDS011;3829;50.798;4.358;2024-01-10T01:02:14;8.40;;;4.33;;
7575;SDS011;3829;50.798;4.358;2024-01-10T01:04:40;11.17;;;4.83;;
7575;SDS011;3829;50.798;4.358;2024-01-10T01:07:06;8.27;;;4.90;;
7575;SDS011;3829;50.798;4.358;2024-01-10T01:09:33;8.50;;;4.27;;
7575;SDS011;3829;50.798;4.358;2024-01-10T01:11:59;10.87;;;4.53;;
7575;SDS011;3829;50.798;4.358;2024-01-10T01:14:24;12.43;;;4.33;;
7575;SDS011;3829;50.798;4.358;2024-01-10T01:16:50;8.50;;;4.67;;
7575;SDS011;3829;50.798;4.358;2024-01-10T01:19:15;10.90;;;4.87;;
7575;SDS011;3829;50.798;4.358;2024-01-10T01:21:42;12.90;;;4.90;;
7575;SDS011;3829;50.798;4.358;2024-01-10T01:24:07;13.27;;;5.43;;
7575;SDS011;3829;50.798;4.358;2024-01-10T01:26:33;8.63;;;2.80;;
7575;SDS011;3829;50.798;4.358;2024-01-10T01:28:58;10.80;;;5.07;;
7575;SDS011;3829;50.798;4.358;2024-01-10T01:31:24;8.97;;;5.33;;
7575;SDS011;3829;50.798;4.358;2024-01-10T01:33:49;9.97;;;5.30;;
7575;SDS011;3829;50.798;4.358;2024-01-10T01:36:15;11.17;;;5.70;;
7575;SDS011;3829;50.798;4.358;2024-01-10T01:38:40;8.53;;;4.20;;
7575;SDS011;3829;50.798;4.358;2024-01-10T01:41:06;9.87;;;5.37;;
7575;SDS011;3829;50.798;4.358;2024-01-10T01:43:32;3.93;;;1.97;;
7575;SDS011;3829;50.798;4.358;2024-01-10T01:45:57;11.83;;;5.23;;
7575;SDS011;3829;50.798;4.358;2024-01-10T01:48:23;8.83;;;4.33;;
7575;SDS011;3829;50.798;4.358;2024-01-10T01:50:51;8.03;;;4.77;;
7575;SDS011;3829;50.798;4.358;2024-01-10T01:53:19;9.70;;;4.80;;
7575;SDS011;3829;50.798;4.358;2024-01-10T01:55:45;8.33;;;4.33;;
7575;SDS011;3829;50.798;4.358;2024-01-10T01:58:11;13.80;;;5.10;;
7575;SDS011;3829;50.798;4.358;2024-01-10T02:00:37;8.87;;;4.33;;
7575;SDS011;3829;50.798;4.358;2024-01-10T02:03:05;8.13;;;4.53;;
7575;SDS011;3829;50.798;4.358;2024-01-10T02:05:31;10.03;;;5.37;;
7575;SDS011;3829;50.798;4.358;2024-01-10T02:07:57;12.07;;;5.07;;
7575;SDS011;3829;50.798;4.358;2024-01-10T02:10:23;5.70;;;2.87;;
7575;SDS011;3829;50.798;4.358;2024-01-10T02:12:49;14.37;;;5.83;;
7575;SDS011;3829;50.798;4.358;2024-01-10T02:15:15;8.70;;;5.17;;
7575;SDS011;3829;50.798;4.358;2024-01-10T02:17:41;9.40;;;5.20;;
7575;SDS011;3829;50.798;4.358;2024-01-10T02:20:11;12.83;;;6.10;;
7575;SDS011;3829;50.798;4.358;2024-01-10T02:22:38;7.53;;;4.43;;
7575;SDS011;3829;50.798;4.358;2024-01-10T02:25:05;7.93;;;4.33;;
7575;SDS011;3829;50.798;4.358;2024-01-10T02:27:35;11.10;;;5.53;;
7575;SDS011;3829;50.798;4.358;2024-01-10T02:30:02;11.10;;;4.73;;
7575;SDS011;3829;50.798;4.358;2024-01-10T02:32:28;8.07;;;4.00;;
7575;SDS011;3829;50.798;4.358;2024-01-10T02:34:54;8.90;;;4.57;;
7575;SDS011;3829;50.798;4.358;2024-01-10T02:37:20;14.30;;;5.23;;
7575;SDS011;3829;50.798;4.358;2024-01-10T02:39:45;15.73;;;5.53;;
7575;SDS011;3829;50.798;4.358;2024-01-10T02:42:11;2.90;;;2.30;;
7575;SDS011;3829;50.798;4.358;2024-01-10T02:44:36;9.47;;;5.03;;
7575;SDS011;3829;50.798;4.358;2024-01-10T02:47:02;23.53;;;6.30;;
7575;SDS011;3829;50.798;4.358;2024-01-10T02:49:28;10.13;;;5.33;;
7575;SDS011;3829;50.798;4.358;2024-01-10T02:51:53;10.57;;;4.77;;
7575;SDS011;3829;50.798;4.358;2024-01-10T02:54:19;10.20;;;5.03;;
7575;SDS011;3829;50.798;4.358;2024-01-10T02:56:45;13.47;;;5.77;;
7575;SDS011;3829;50.798;4.358;2024-01-10T02:59:10;11.50;;;6.00;;
7575;SDS011;3829;50.798;4.358;2024-01-10T03:01:36;12.77;;;6.03;;
7575;SDS011;3829;50.798;4.358;2024-01-10T03:04:01;14.27;;;5.40;;
7575;SDS011;3829;50.798;4.358;2024-01-10T03:06:27;9.80;;;4.97;;
7575;SDS011;3829;50.798;4.358;2024-01-10T03:08:53;13.57;;;5.50;;
7575;SDS011;3829;50.798;4.358;2024-01-10T03:11:20;7.00;;;4.03;;
7575;SDS011;3829;50.798;4.358;2024-01-10T03:13:46;10.47;;;5.53;;
7575;SDS011;3829;50.798;4.358;2024-01-10T03:16:12;9.00;;;4.73;;
7575;SDS011;3829;50.798;4.358;2024-01-10T03:18:38;13.17;;;6.00;;
7575;SDS011;3829;50.798;4.358;2024-01-10T03:21:04;10.33;;;5.17;;
7575;SDS011;3829;50.798;4.358;2024-01-10T03:23:29;11.17;;;5.30;;
7575;SDS011;3829;50.798;4.358;2024-01-10T03:25:56;9.73;;;4.80;;
7575;SDS011;3829;50.798;4.358;2024-01-10T03:28:22;10.03;;;4.97;;
7575;SDS011;3829;50.798;4.358;2024-01-10T03:30:48;9.10;;;4.43;;
7575;SDS011;3829;50.798;4.358;2024-01-10T03:33:14;13.23;;;4.37;;
7575;SDS011;3829;50.798;4.358;2024-01-10T03:35:40;13.40;;;6.10;;
7575;SDS011;3829;50.798;4.358;2024-01-10T03:38:07;11.20;;;5.20;;
7575;SDS011;3829;50.798;4.358;2024-01-10T03:40:32;12.07;;;5.97;;
7575;SDS011;3829;50.798;4.358;2024-01-10T03:42:58;14.93;;;5.53;;
7575;SDS011;3829;50.798;4.358;2024-01-10T03:45:24;9.43;;;5.27;;
7575;SDS011;3829;50.798;4.358;2024-01-10T03:47:49;11.57;;;5.70;;
7575;SDS011;3829;50.798;4.358;2024-01-10T03:50:19;12.77;;;5.23;;
7575;SDS011;3829;50.798;4.358;2024-01-10T03:52:45;10.70;;;5.20;;
7575;SDS011;3829;50.798;4.358;2024-01-10T03:55:12;11.83;;;5.40;;
7575;SDS011;3829;50.798;4.358;2024-01-10T03:57:38;10.97;;;4.90;;
7575;SDS011;3829;50.798;4.358;2024-01-10T04:00:04;8.57;;;5.07;;
7575;SDS011;3829;50.798;4.358;2024-01-10T04:02:31;10.60;;;4.80;;
7575;SDS011;3829;50.798;4.358;2024-01-10T04:04:57;11.60;;;5.17;;
7575;SDS011;3829;50.798;4.358;2024-01-10T04:07:23;9.33;;;4.90;;
7575;SDS011;3829;50.798;4.358;2024-01-10T04:09:48;10.57;;;4.53;;
7575;SDS011;3829;50.798;4.358;2024-01-10T04:12:14;7.90;;;4.93;;
7575;SDS011;3829;50.798;4.358;2024-01-10T04:14:40;12.37;;;5.70;;
7575;SDS011;3829;50.798;4.358;2024-01-10T04:17:05;13.33;;;5.17;;
7575;SDS011;3829;50.798;4.358;2024-01-10T04:19:32;11.13;;;5.47;;
7575;SDS011;3829;50.798;4.358;2024-01-10T04:21:58;11.73;;;4.87;;
7575;SDS011;3829;50.798;4.358;2024-01-10T04:24:24;8.13;;;4.43;;
7575;SDS011;3829;50.798;4.358;2024-01-10T04:26:49;8.90;;;4.80;;
7575;SDS011;3829;50.798;4.358;2024-01-10T04:29:15;9.13;;;4.80;;
7575;SDS011;3829;50.798;4.358;2024-01-10T04:31:41;12.70;;;5.23;;
7575;SDS011;3829;50.798;4.358;2024-01-10T04:34:06;15.13;;;5.67;;
7575;SDS011;3829;50.798;4.358;2024-01-10T04:36:32;10.33;;;5.67;;
7575;SDS011;3829;50.798;4.358;2024-01-10T04:38:57;10.97;;;5.83;;
7575;SDS011;3829;50.798;4.358;2024-01-10T04:41:23;9.53;;;5.47;;
7575;SDS011;3829;50.798;4.358;2024-01-10T04:43:48;10.50;;;5.10;;
7575;SDS011;3829;50.798;4.358;2024-01-10T04:46:14;11.33;;;4.93;;
7575;SDS011;3829;50.798;4.358;2024-01-10T04:48:40;11.77;;;5.53;;
7575;SDS011;3829;50.798;4.358;2024-01-10T04:51:05;8.80;;;4.77;;
7575;SDS011;3829;50.798;4.358;2024-01-10T04:53:31;9.57;;;5.00;;
7575;SDS011;3829;50.798;4.358;2024-01-10T04:55:56;8.17;;;4.73;;
7575;SDS011;3829;50.798;4.358;2024-01-10T04:58:22;4.73;;;3.70;;
7575;SDS011;3829;50.798;4.358;2024-01-10T05:00:48;8.77;;;4.23;;
7575;SDS011;3829;50.798;4.358;2024-01-10T05:03:13;13.33;;;6.60;;
7575;SDS011;3829;50.798;4.358;2024-01-10T05:05:39;10.13;;;4.20;;
7575;SDS011;3829;50.798;4.358;2024-01-10T05:08:05;9.80;;;4.30;;
7575;SDS011;3829;50.798;4.358;2024-01-10T05:10:31;5.63;;;4.00;;
7575;SDS011;3829;50.798;4.358;2024-01-10T05:12:57;7.87;;;5.03;;
7575;SDS011;3829;50.798;4.358;2024-01-10T05:15:22;11.23;;;5.43;;
7575;SDS011;3829;50.798;4.358;2024-01-10T05:17:48;11.53;;;5.23;;
7575;SDS011;3829;50.798;4.358;2024-01-10T05:20:13;11.90;;;5.57;;
7575;SDS011;3829;50.798;4.358;2024-01-10T05:22:39;11.23;;;5.20;;
7575;SDS011;3829;50.798;4.358;2024-01-10T05:25:05;15.33;;;5.17;;
7575;SDS011;3829;50.798;4.358;2024-01-10T05:27:31;11.60;;;5.97;;
7575;SDS011;3829;50.798;4.358;2024-01-10T05:29:57;6.30;;;4.27;;
7575;SDS011;3829;50.798;4.358;2024-01-10T05:32:24;8.83;;;5.20;;
7575;SDS011;3829;50.798;4.358;2024-01-10T05:34:51;17.43;;;6.13;;
7575;SDS011;3829;50.798;4.358;2024-01-10T05:37:17;11.70;;;6.43;;
7575;SDS011;3829;50.798;4.358;2024-01-10T05:39:42;14.37;;;6.03;;
7575;SDS011;3829;50.798;4.358;2024-01-10T05:42:08;17.43;;;7.03;;
7575;SDS011;3829;50.798;4.358;2024-01-10T05:44:33;13.37;;;5.30;;
7575;SDS011;3829;50.798;4.358;2024-01-10T05:46:59;8.50;;;4.73;;
7575;SDS011;3829;50.798;4.358;2024-01-10T05:49:25;6.37;;;3.93;;
7575;SDS011;3829;50.798;4.358;2024-01-10T05:51:51;17.30;;;6.17;;
7575;SDS011;3829;50.798;4.358;2024-01-10T05:54:16;16.23;;;6.93;;
7575;SDS011;3829;50.798;4.358;2024-01-10T05:56:43;15.77;;;6.93;;
7575;SDS011;3829;50.798;4.358;2024-01-10T05:59:09;8.07;;;3.47;;
7575;SDS011;3829;50.798;4.358;2024-01-10T06:01:36;12.00;;;5.80;;
7575;SDS011;3829;50.798;4.358;2024-01-10T06:04:03;13.27;;;5.70;;
7575;SDS011;3829;50.798;4.358;2024-01-10T06:06:29;13.17;;;6.03;;
7575;SDS011;3829;50.798;4.358;2024-01-10T06:08:55;9.93;;;6.30;;
7575;SDS011;3829;50.798;4.358;2024-01-10T06:11:21;13.73;;;5.17;;
7575;SDS011;3829;50.798;4.358;2024-01-10T06:13:47;10.60;;;5.33;;
7575;SDS011;3829;50.798;4.358;2024-01-10T06:16:12;11.70;;;5.50;;
7575;SDS011;3829;50.798;4.358;2024-01-10T06:18:38;15.40;;;5.77;;
7575;SDS011;3829;50.798;4.358;2024-01-10T06:21:04;5.27;;;3.77;;
7575;SDS011;3829;50.798;4.358;2024-01-10T06:23:30;12.43;;;5.17;;
7575;SDS011;3829;50.798;4.358;2024-01-10T06:25:55;12.97;;;5.03;;
7575;SDS011;3829;50.798;4.358;2024-01-10T06:28:21;11.03;;;4.40;;
7575;SDS011;3829;50.798;4.358;2024-01-10T06:30:48;11.93;;;6.07;;
7575;SDS011;3829;50.798;4.358;2024-01-10T06:33:14;9.17;;;4.87;;
7575;SDS011;3829;50.798;4.358;2024-01-10T06:35:40;9.93;;;5.47;;
7575;SDS011;3829;50.798;4.358;2024-01-10T06:38:08;11.27;;;5.47;;
7575;SDS011;3829;50.798;4.358;2024-01-10T06:40:34;17.70;;;6.17;;
7575;SDS011;3829;50.798;4.358;2024-01-10T06:42:59;15.53;;;6.87;;
7575;SDS011;3829;50.798;4.358;2024-01-10T06:45:26;15.73;;;8.87;;
7575;SDS011;3829;50.798;4.358;2024-01-10T06:47:51;13.57;;;5.93;;
7575;SDS011;3829;50.798;4.358;2024-01-10T06:50:17;13.37;;;6.37;;
7575;SDS011;3829;50.798;4.358;2024-01-10T06:52:44;10.43;;;5.57;;
7575;SDS011;3829;50.798;4.358;2024-01-10T06:55:10;16.40;;;6.13;;
7575;SDS011;3829;50.798;4.358;2024-01-10T06:57:35;9.47;;;5.00;;
7575;SDS011;3829;50.798;4.358;2024-01-10T07:00:01;12.50;;;5.73;;
7575;SDS011;3829;50.798;4.358;2024-01-10T07:02:31;10.77;;;5.40;;
7575;SDS011;3829;50.798;4.358;2024-01-10T07:04:57;5.30;;;3.23;;
7575;SDS011;3829;50.798;4.358;2024-01-10T07:07:23;21.97;;;4.43;;
7575;SDS011;3829;50.798;4.358;2024-01-10T07:09:51;10.10;;;4.93;;
7575;SDS011;3829;50.798;4.358;2024-01-10T07:12:17;9.90;;;4.47;;
7575;SDS011;3829;50.798;4.358;2024-01-10T07:14:42;13.57;;;6.67;;
7575;SDS011;3829;50.798;4.358;2024-01-10T07:17:08;10.10;;;4.27;;
7575;SDS011;3829;50.798;4.358;2024-01-10T07:19:33;9.67;;;5.97;;
7575;SDS011;3829;50.798;4.358;2024-01-10T07:21:59;13.40;;;5.67;;
7575;SDS011;3829;50.798;4.358;2024-01-10T07:24:25;7.80;;;3.53;;
7575;SDS011;3829;50.798;4.358;2024-01-10T07:26:51;12.27;;;5.97;;
7575;SDS011;3829;50.798;4.358;2024-01-10T07:29:16;5.60;;;3.80;;
7575;SDS011;3829;50.798;4.358;2024-01-10T07:31:42;10.93;;;5.27;;
7575;SDS011;3829;50.798;4.358;2024-01-10T07:34:08;10.17;;;5.53;;
7575;SDS011;3829;50.798;4.358;2024-01-10T07:36:33;9.33;;;5.07;;
7575;SDS011;3829;50.798;4.358;2024-01-10T07:39:05;10.67;;;5.10;;
7575;SDS011;3829;50.798;4.358;2024-01-10T07:41:31;9.20;;;5.77;;
7575;SDS011;3829;50.798;4.358;2024-01-10T07:43:57;13.63;;;5.93;;
7575;SDS011;3829;50.798;4.358;2024-01-10T07:46:23;10.50;;;5.37;;
7575;SDS011;3829;50.798;4.358;2024-01-10T07:48:48;13.90;;;6.63;;
7575;SDS011;3829;50.798;4.358;2024-01-10T07:51:14;12.53;;;6.30;;
7575;SDS011;3829;50.798;4.358;2024-01-10T07:53:40;15.57;;;6.70;;
7575;SDS011;3829;50.798;4.358;2024-01-10T07:56:05;13.13;;;5.90;;
7575;SDS011;3829;50.798;4.358;2024-01-10T07:58:31;7.90;;;5.00;;
7575;SDS011;3829;50.798;4.358;2024-01-10T08:00:56;5.73;;;4.17;;
7575;SDS011;3829;50.798;4.358;2024-01-10T08:03:22;13.17;;;6.47;;
7575;SDS011;3829;50.798;4.358;2024-01-10T08:05:48;14.87;;;6.53;;
7575;SDS011;3829;50.798;4.358;2024-01-10T08:08:14;12.30;;;6.57;;
7575;SDS011;3829;50.798;4.358;2024-01-10T08:10:41;13.20;;;5.97;;
7575;SDS011;3829;50.798;4.358;2024-01-10T08:13:07;9.83;;;5.70;;
7575;SDS011;3829;50.798;4.358;2024-01-10T08:15:33;14.30;;;6.00;;
7575;SDS011;3829;50.798;4.358;2024-01-10T08:17:59;14.03;;;5.17;;
7575;SDS011;3829;50.798;4.358;2024-01-10T08:20:28;9.70;;;5.73;;
7575;SDS011;3829;50.798;4.358;2024-01-10T08:22:53;11.20;;;5.50;;
7575;SDS011;3829;50.798;4.358;2024-01-10T08:25:19;13.93;;;6.87;;
7575;SDS011;3829;50.798;4.358;2024-01-10T08:27:44;10.20;;;5.50;;
7575;SDS011;3829;50.798;4.358;2024-01-10T08:30:10;11.67;;;5.90;;
7575;SDS011;3829;50.798;4.358;2024-01-10T08:32:36;11.97;;;5.67;;
7575;SDS011;3829;50.798;4.358;2024-01-10T08:35:03;15.67;;;6.33;;
7575;SDS011;3829;50.798;4.358;2024-01-10T08:37:30;15.33;;;6.27;;
7575;SDS011;3829;50.798;4.358;2024-01-10T08:39:56;13.40;;;7.20;;
7575;SDS011;3829;50.798;4.358;2024-01-10T08:42:22;11.23;;;5.20;;
7575;SDS011;3829;50.798;4.358;2024-01-10T08:44:47;13.37;;;6.50;;
7575;SDS011;3829;50.798;4.358;2024-01-10T08:47:14;15.90;;;7.13;;
7575;SDS011;3829;50.798;4.358;2024-01-10T08:49:40;19.60;;;7.37;;
7575;SDS011;3829;50.798;4.358;2024-01-10T08:52:05;11.83;;;6.57;;
7575;SDS011;3829;50.798;4.358;2024-01-10T08:54:31;13.27;;;6.43;;
7575;SDS011;3829;50.798;4.358;2024-01-10T08:56:56;14.10;;;7.20;;
7575;SDS011;3829;50.798;4.358;2024-01-10T08:59:23;10.40;;;6.30;;
7575;SDS011;3829;50.798;4.358;2024-01-10T09:01:49;16.97;;;7.10;;
7575;SDS011;3829;50.798;4.358;2024-01-10T09:04:14;12.13;;;5.97;;
7575;SDS011;3829;50.798;4.358;2024-01-10T09:06:40;9.13;;;5.23;;
7575;SDS011;3829;50.798;4.358;2024-01-10T09:09:06;12.77;;;6.83;;
7575;SDS011;3829;50.798;4.358;2024-01-10T09:11:32;6.47;;;3.77;;
7575;SDS011;3829;50.798;4.358;2024-01-10T09:13:58;11.13;;;6.33;;
7575;SDS011;3829;50.798;4.358;2024-01-10T09:16:24;7.57;;;4.83;;
7575;SDS011;3829;50.798;4.358;2024-01-10T09:18:49;17.20;;;7.43;;
7575;SDS011;3829;50.798;4.358;2024-01-10T09:21:19;22.27;;;7.87;;
7575;SDS011;3829;50.798;4.358;2024-01-10T09:23:45;12.37;;;6.00;;
7575;SDS011;3829;50.798;4.358;2024-01-10T09:26:12;9.57;;;5.73;;
7575;SDS011;3829;50.798;4.358;2024-01-10T09:28:38;13.73;;;6.57;;
7575;SDS011;3829;50.798;4.358;2024-01-10T09:31:05;10.63;;;6.33;;
7575;SDS011;3829;50.798;4.358;2024-01-10T09:33:32;14.03;;;6.97;;
7575;SDS011;3829;50.798;4.358;2024-01-10T09:35:59;13.23;;;6.33;;
7575;SDS011;3829;50.798;4.358;2024-01-10T09:38:24;7.47;;;2.87;;
7575;SDS011;3829;50.798;4.358;2024-01-10T09:40:50;14.17;;;6.60;;
7575;SDS011;3829;50.798;4.358;2024-01-10T09:43:20;12.03;;;6.27;;
7575;SDS011;3829;50.798;4.358;2024-01-10T09:45:46;9.97;;;5.90;;
7575;SDS011;3829;50.798;4.358;2024-01-10T09:48:14;8.30;;;4.57;;
7575;SDS011;3829;50.798;4.358;2024-01-10T09:50:40;11.77;;;6.80;;
7575;SDS011;3829;50.798;4.358;2024-01-10T09:53:06;14.80;;;6.80;;
7575;SDS011;3829;50.798;4.358;2024-01-10T09:55:34;12.53;;;5.27;;
7575;SDS011;3829;50.798;4.358;2024-01-10T09:58:04;16.63;;;6.73;;
7575;SDS011;3829;50.798;4.358;2024-01-10T10:00:30;13.93;;;6.47;;
7575;SDS011;3829;50.798;4.358;2024-01-10T10:02:58;10.27;;;6.10;;
7575;SDS011;3829;50.798;4.358;2024-01-10T10:05:25;17.77;;;7.27;;
7575;SDS011;3829;50.798;4.358;2024-01-10T10:07:52;12.83;;;5.57;;
7575;SDS011;3829;50.798;4.358;2024-01-10T10:10:18;12.03;;;6.17;;
7575;SDS011;3829;50.798;4.358;2024-01-10T10:12:44;8.30;;;4.80;;
7575;SDS011;3829;50.798;4.358;2024-01-10T10:15:14;14.00;;;6.63;;
7575;SDS011;3829;50.798;4.358;2024-01-10T10:17:41;16.87;;;7.07;;
7575;SDS011;3829;50.798;4.358;2024-01-10T10:20:14;13.53;;;6.53;;
7575;SDS011;3829;50.798;4.358;2024-01-10T10:25:28;15.17;;;7.43;;
7575;SDS011;3829;50.798;4.358;2024-01-10T10:27:59;14.63;;;6.97;;
7575;SDS011;3829;50.798;4.358;2024-01-10T10:30:25;17.03;;;7.33;;
7575;SDS011;3829;50.798;4.358;2024-01-10T10:32:52;10.83;;;6.43;;
7575;SDS011;3829;50.798;4.358;2024-01-10T10:35:18;15.17;;;6.50;;
7575;SDS011;3829;50.798;4.358;2024-01-10T10:37:46;13.57;;;7.10;;
7575;SDS011;3829;50.798;4.358;2024-01-10T10:40:13;13.80;;;7.30;;
7575;SDS011;3829;50.798;4.358;2024-01-10T10:42:40;11.83;;;6.60;;
7575;SDS011;3829;50.798;4.358;2024-01-10T10:45:11;17.30;;;6.93;;
7575;SDS011;3829;50.798;4.358;2024-01-10T10:47:43;15.37;;;6.87;;
7575;SDS011;3829;50.798;4.358;2024-01-10T10:50:12;14.07;;;7.23;;
7575;SDS011;3829;50.798;4.358;2024-01-10T10:52:45;13.03;;;5.97;;
7575;SDS011;3829;50.798;4.358;2024-01-10T10:55:13;11.67;;;6.63;;
7575;SDS011;3829;50.798;4.358;2024-01-10T10:57:41;15.03;;;7.33;;
7575;SDS011;3829;50.798;4.358;2024-01-10T11:00:09;16.17;;;7.33;;
7575;SDS011;3829;50.798;4.358;2024-01-10T11:02:40;10.27;;;6.27;;
7575;SDS011;3829;50.798;4.358;2024-01-10T11:05:06;9.03;;;5.13;;
7575;SDS011;3829;50.798;4.358;2024-01-10T11:07:35;12.53;;;7.13;;
7575;SDS011;3829;50.798;4.358;2024-01-10T11:10:04;13.83;;;7.53;;
7575;SDS011;3829;50.798;4.358;2024-01-10T11:12:39;11.67;;;6.07;;
7575;SDS011;3829;50.798;4.358;2024-01-10T11:18:12;17.47;;;7.93;;
7575;SDS011;3829;50.798;4.358;2024-01-10T11:21:03;11.63;;;6.53;;
7575;SDS011;3829;50.798;4.358;2024-01-10T11:26:19;19.50;;;7.63;;
7575;SDS011;3829;50.798;4.358;2024-01-10T11:28:45;13.63;;;6.07;;
7575;SDS011;3829;50.798;4.358;2024-01-10T11:31:11;12.97;;;6.33;;
7575;SDS011;3829;50.798;4.358;2024-01-10T11:33:40;11.87;;;6.53;;
7575;SDS011;3829;50.798;4.358;2024-01-10T11:36:10;12.10;;;6.33;;
7575;SDS011;3829;50.798;4.358;2024-01-10T11:41:23;15.33;;;6.73;;
7575;SDS011;3829;50.798;4.358;2024-01-10T11:46:37;18.40;;;7.53;;
7575;SDS011;3829;50.798;4.358;2024-01-10T11:49:08;16.37;;;7.50;;
7575;SDS011;3829;50.798;4.358;2024-01-10T11:51:35;15.93;;;7.17;;
7575;SDS011;3829;50.798;4.358;2024-01-10T11:54:01;17.13;;;7.77;;
7575;SDS011;3829;50.798;4.358;2024-01-10T11:56:37;18.10;;;6.53;;
7575;SDS011;3829;50.798;4.358;2024-01-10T11:59:09;13.10;;;6.93;;
7575;SDS011;3829;50.798;4.358;2024-01-10T12:01:37;11.77;;;6.80;;
7575;SDS011;3829;50.798;4.358;2024-01-10T12:04:03;12.30;;;6.50;;
7575;SDS011;3829;50.798;4.358;2024-01-10T12:06:29;16.63;;;8.17;;
7575;SDS011;3829;50.798;4.358;2024-01-10T12:09:03;16.27;;;8.13;;
7575;SDS011;3829;50.798;4.358;2024-01-10T12:11:34;12.93;;;7.20;;
7575;SDS011;3829;50.798;4.358;2024-01-10T12:14:01;15.50;;;7.90;;
7575;SDS011;3829;50.798;4.358;2024-01-10T12:16:27;15.63;;;7.67;;
7575;SDS011;3829;50.798;4.358;2024-01-10T12:18:54;16.07;;;7.43;;
7575;SDS011;3829;50.798;4.358;2024-01-10T12:21:19;14.70;;;7.73;;
7575;SDS011;3829;50.798;4.358;2024-01-10T12:23:46;20.97;;;7.43;;
7575;SDS011;3829;50.798;4.358;2024-01-10T12:26:12;15.13;;;8.10;;
7575;SDS011;3829;50.798;4.358;2024-01-10T12:28:38;19.83;;;9.07;;
7575;SDS011;3829;50.798;4.358;2024-01-10T12:31:04;17.70;;;8.07;;
7575;SDS011;3829;50.798;4.358;2024-01-10T12:33:32;16.77;;;8.50;;
7575;SDS011;3829;50.798;4.358;2024-01-10T12:36:03;18.70;;;8.07;;
7575;SDS011;3829;50.798;4.358;2024-01-10T12:38:30;20.23;;;8.03;;
7575;SDS011;3829;50.798;4.358;2024-01-10T12:40:56;19.00;;;8.47;;
7575;SDS011;3829;50.798;4.358;2024-01-10T12:43:22;16.07;;;7.30;;
7575;SDS011;3829;50.798;4.358;2024-01-10T12:45:48;18.37;;;7.43;;
7575;SDS011;3829;50.798;4.358;2024-01-10T12:48:28;26.10;;;8.23;;
7575;SDS011;3829;50.798;4.358;2024-01-10T12:50:54;16.40;;;7.53;;
7575;SDS011;3829;50.798;4.358;2024-01-10T12:53:19;18.17;;;7.50;;
7575;SDS011;3829;50.798;4.358;2024-01-10T12:55:45;18.27;;;8.30;;
7575;SDS011;3829;50.798;4.358;2024-01-10T12:58:11;11.67;;;6.80;;
7575;SDS011;3829;50.798;4.358;2024-01-10T13:00:37;16.43;;;8.33;;
7575;SDS011;3829;50.798;4.358;2024-01-10T13:03:04;18.90;;;7.57;;
7575;SDS011;3829;50.798;4.358;2024-01-10T13:05:30;16.87;;;7.80;;
7575;SDS011;3829;50.798;4.358;2024-01-10T13:07:56;15.50;;;8.00;;
7575;SDS011;3829;50.798;4.358;2024-01-10T13:10:22;13.03;;;7.97;;
7575;SDS011;3829;50.798;4.358;2024-01-10T13:12:47;12.50;;;7.37;;
7575;SDS011;3829;50.798;4.358;2024-01-10T13:15:13;17.93;;;7.57;;
7575;SDS011;3829;50.798;4.358;2024-01-10T13:17:39;18.27;;;8.87;;
7575;SDS011;3829;50.798;4.358;2024-01-10T13:20:05;18.90;;;8.30;;
7575;SDS011;3829;50.798;4.358;2024-01-10T13:22:31;17.47;;;8.13;;
7575;SDS011;3829;50.798;4.358;2024-01-10T13:24:57;19.07;;;8.23;;
7575;SDS011;3829;50.798;4.358;2024-01-10T13:27:22;17.07;;;7.77;;
7575;SDS011;3829;50.798;4.358;2024-01-10T13:29:48;16.23;;;7.20;;
7575;SDS011;3829;50.798;4.358;2024-01-10T13:32:13;17.37;;;7.93;;
7575;SDS011;3829;50.798;4.358;2024-01-10T13:34:40;15.10;;;8.03;;
7575;SDS011;3829;50.798;4.358;2024-01-10T13:37:06;15.67;;;8.20;;
7575;SDS011;3829;50.798;4.358;2024-01-10T13:39:32;20.73;;;8.43;;
7575;SDS011;3829;50.798;4.358;2024-01-10T13:41:58;12.47;;;6.83;;
7575;SDS011;3829;50.798;4.358;2024-01-10T13:44:23;14.40;;;7.70;;
7575;SDS011;3829;50.798;4.358;2024-01-10T13:46:49;15.20;;;7.57;;
7575;SDS011;3829;50.798;4.358;2024-01-10T13:49:16;15.37;;;7.97;;
7575;SDS011;3829;50.798;4.358;2024-01-10T13:51:41;14.03;;;7.83;;
7575;SDS011;3829;50.798;4.358;2024-01-10T13:54:07;19.17;;;8.07;;
7575;SDS011;3829;50.798;4.358;2024-01-10T13:56:33;19.40;;;8.73;;
7575;SDS011;3829;50.798;4.358;2024-01-10T13:58:59;15.63;;;7.33;;
7575;SDS011;3829;50.798;4.358;2024-01-10T14:01:24;18.50;;;8.33;;
7575;SDS011;3829;50.798;4.358;2024-01-10T14:03:51;17.03;;;7.27;;
7575;SDS011;3829;50.798;4.358;2024-01-10T14:06:16;18.90;;;7.77;;
7575;SDS011;3829;50.798;4.358;2024-01-10T14:08:42;18.37;;;8.40;;
7575;SDS011;3829;50.798;4.358;2024-01-10T14:11:10;13.70;;;7.87;;
7575;SDS011;3829;50.798;4.358;2024-01-10T14:13:36;19.90;;;8.30;;
7575;SDS011;3829;50.798;4.358;2024-01-10T14:16:01;18.20;;;8.37;;
7575;SDS011;3829;50.798;4.358;2024-01-10T14:18:27;13.93;;;7.40;;
7575;SDS011;3829;50.798;4.358;2024-01-10T14:20:52;16.23;;;8.67;;
7575;SDS011;3829;50.798;4.358;2024-01-10T14:23:18;21.03;;;8.60;;
7575;SDS011;3829;50.798;4.358;2024-01-10T14:25:43;14.67;;;7.43;;
7575;SDS011;3829;50.798;4.358;2024-01-10T14:28:09;15.97;;;8.10;;
7575;SDS011;3829;50.798;4.358;2024-01-10T14:30:35;17.20;;;9.07;;
7575;SDS011;3829;50.798;4.358;2024-01-10T14:33:00;17.47;;;8.57;;
7575;SDS011;3829;50.798;4.358;2024-01-10T14:35:26;17.80;;;7.73;;
7575;SDS011;3829;50.798;4.358;2024-01-10T14:37:51;18.30;;;7.57;;
7575;SDS011;3829;50.798;4.358;2024-01-10T14:40:18;16.90;;;8.30;;
7575;SDS011;3829;50.798;4.358;2024-01-10T14:42:43;21.73;;;8.83;;
7575;SDS011;3829;50.798;4.358;2024-01-10T14:45:10;20.37;;;8.70;;
7575;SDS011;3829;50.798;4.358;2024-01-10T14:47:36;15.20;;;7.63;;
7575;SDS011;3829;50.798;4.358;2024-01-10T14:50:01;23.07;;;9.30;;
7575;SDS011;3829;50.798;4.358;2024-01-10T14:52:28;21.67;;;7.67;;
7575;SDS011;3829;50.798;4.358;2024-01-10T14:54:54;21.13;;;8.53;;
7575;SDS011;3829;50.798;4.358;2024-01-10T14:57:20;13.47;;;7.63;;
7575;SDS011;3829;50.798;4.358;2024-01-10T14:59:46;19.20;;;7.87;;
7575;SDS011;3829;50.798;4.358;2024-01-10T15:02:12;20.80;;;8.27;;
7575;SDS011;3829;50.798;4.358;2024-01-10T15:04:39;16.40;;;8.03;;
7575;SDS011;3829;50.798;4.358;2024-01-10T15:07:05;18.07;;;8.23;;
7575;SDS011;3829;50.798;4.358;2024-01-10T15:09:31;17.97;;;7.63;;
7575;SDS011;3829;50.798;4.358;2024-01-10T15:11:57;19.97;;;8.47;;
7575;SDS011;3829;50.798;4.358;2024-01-10T15:14:22;16.30;;;7.83;;